sensor_id;sensor_type;location;lat;lon;timestamp;P1;durP1;ratioP1;P2;durP2;ratioP2
67053;SDS011;53960;51.826;5.850;2023-04-01T00:00:05;6.20;;;1.20;;
67053;SDS011;53960;51.826;5.850;2023-04-01T00:02:31;7.25;;;1.58;;
67053;SDS011;53960;51.826;5.850;2023-04-01T00:04:57;6.70;;;1.30;;
67053;SDS011;53960;51.826;5.850;2023-04-01T00:07:22;7.23;;;1.57;;
67053;SDS011;53960;51.826;5.850;2023-04-01T00:09:47;8.53;;;1.50;;
67053;SDS011;53960;51.826;5.850;2023-04-01T00:12:13;7.50;;;1.43;;
67053;SDS011;53960;51.826;5.850;2023-04-01T00:14:38;6.80;;;1.70;;
67053;SDS011;53960;51.826;5.850;2023-04-01T00:17:04;6.35;;;1.50;;
67053;SDS011;53960;51.826;5.850;2023-04-01T00:19:30;7.20;;;1.67;;
67053;SDS011;53960;51.826;5.850;2023-04-01T00:21:56;8.20;;;1.60;;
67053;SDS011;53960;51.826;5.850;2023-04-01T00:24:22;8.83;;;1.67;;
67053;SDS011;53960;51.826;5.850;2023-04-01T00:26:47;7.17;;;1.50;;
67053;SDS011;53960;51.826;5.850;2023-04-01T00:29:13;7.97;;;1.97;;
67053;SDS011;53960;51.826;5.850;2023-04-01T00:31:38;8.65;;;1.75;;
67053;SDS011;53960;51.826;5.850;2023-04-01T00:34:03;9.60;;;2.33;;
67053;SDS011;53960;51.826;5.850;2023-04-01T00:36:29;7.67;;;1.60;;
67053;SDS011;53960;51.826;5.850;2023-04-01T00:38:54;7.43;;;2.10;;
67053;SDS011;53960;51.826;5.850;2023-04-01T00:41:20;8.00;;;1.80;;
67053;SDS011;53960;51.826;5.850;2023-04-01T00:43:47;7.18;;;2.00;;
67053;SDS011;53960;51.826;5.850;2023-04-01T00:46:14;9.00;;;2.13;;
67053;SDS011;53960;51.826;5.850;2023-04-01T00:48:42;8.70;;;2.40;;
67053;SDS011;53960;51.826;5.850;2023-04-01T00:51:26;7.40;;;1.98;;
67053;SDS011;53960;51.826;5.850;2023-04-01T00:53:53;7.93;;;2.58;;
67053;SDS011;53960;51.826;5.850;2023-04-01T00:56:22;9.18;;;2.67;;
67053;SDS011;53960;51.826;5.850;2023-04-01T00:58:53;7.13;;;2.40;;
67053;SDS011;53960;51.826;5.850;2023-04-01T01:01:22;8.30;;;2.33;;
67053;SDS011;53960;51.826;5.850;2023-04-01T01:03:49;7.30;;;2.50;;
67053;SDS011;53960;51.826;5.850;2023-04-01T01:06:18;7.60;;;2.47;;
67053;SDS011;53960;51.826;5.850;2023-04-01T01:11:22;7.37;;;2.53;;
67053;SDS011;53960;51.826;5.850;2023-04-01T01:13:58;7.60;;;3.00;;
67053;SDS011;53960;51.826;5.850;2023-04-01T01:16:30;9.23;;;3.10;;
67053;SDS011;53960;51.826;5.850;2023-04-01T01:19:07;9.32;;;3.28;;
67053;SDS011;53960;51.826;5.850;2023-04-01T01:27:13;10.32;;;3.55;;
67053;SDS011;53960;51.826;5.850;2023-04-01T01:32:52;11.20;;;4.45;;
67053;SDS011;53960;51.826;5.850;2023-04-01T01:38:26;10.23;;;4.53;;
67053;SDS011;53960;51.826;5.850;2023-04-01T01:40:54;11.18;;;4.30;;
67053;SDS011;53960;51.826;5.850;2023-04-01T01:43:24;10.98;;;4.53;;
67053;SDS011;53960;51.826;5.850;2023-04-01T01:45:53;11.05;;;4.60;;
67053;SDS011;53960;51.826;5.850;2023-04-01T01:48:22;11.63;;;5.23;;
67053;SDS011;53960;51.826;5.850;2023-04-01T01:50:49;10.93;;;4.80;;
67053;SDS011;53960;51.826;5.850;2023-04-01T01:53:15;11.35;;;4.80;;
67053;SDS011;53960;51.826;5.850;2023-04-01T01:55:42;9.73;;;3.90;;
67053;SDS011;53960;51.826;5.850;2023-04-01T01:58:16;11.68;;;4.70;;
67053;SDS011;53960;51.826;5.850;2023-04-01T02:01:06;10.00;;;4.35;;
67053;SDS011;53960;51.826;5.850;2023-04-01T02:03:33;10.30;;;4.50;;
67053;SDS011;53960;51.826;5.850;2023-04-01T02:06:01;12.37;;;4.77;;
67053;SDS011;53960;51.826;5.850;2023-04-01T02:08:45;11.13;;;4.60;;
67053;SDS011;53960;51.826;5.850;2023-04-01T02:11:18;11.55;;;5.40;;
67053;SDS011;53960;51.826;5.850;2023-04-01T02:13:56;11.50;;;5.40;;
67053;SDS011;53960;51.826;5.850;2023-04-01T02:16:36;11.30;;;4.90;;
67053;SDS011;53960;51.826;5.850;2023-04-01T02:19:05;10.27;;;4.50;;
67053;SDS011;53960;51.826;5.850;2023-04-01T02:21:35;10.60;;;5.25;;
67053;SDS011;53960;51.826;5.850;2023-04-01T02:24:02;10.77;;;5.38;;
67053;SDS011;53960;51.826;5.850;2023-04-01T02:26:30;9.88;;;4.45;;
67053;SDS011;53960;51.826;5.850;2023-04-01T02:28:56;12.13;;;4.30;;
67053;SDS011;53960;51.826;5.850;2023-04-01T02:31:24;8.50;;;3.25;;
67053;SDS011;53960;51.826;5.850;2023-04-01T02:33:50;9.03;;;3.37;;
67053;SDS011;53960;51.826;5.850;2023-04-01T02:36:16;8.32;;;3.45;;
67053;SDS011;53960;51.826;5.850;2023-04-01T02:38:42;8.68;;;3.75;;
67053;SDS011;53960;51.826;5.850;2023-04-01T02:41:09;10.80;;;3.70;;
67053;SDS011;53960;51.826;5.850;2023-04-01T02:43:35;9.37;;;3.87;;
67053;SDS011;53960;51.826;5.850;2023-04-01T02:46:00;8.53;;;3.50;;
67053;SDS011;53960;51.826;5.850;2023-04-01T02:48:26;8.90;;;3.75;;
67053;SDS011;53960;51.826;5.850;2023-04-01T02:50:52;10.05;;;4.45;;
67053;SDS011;53960;51.826;5.850;2023-04-01T02:53:18;8.97;;;3.80;;
67053;SDS011;53960;51.826;5.850;2023-04-01T02:55:43;8.87;;;3.73;;
67053;SDS011;53960;51.826;5.850;2023-04-01T02:58:09;8.77;;;3.33;;
67053;SDS011;53960;51.826;5.850;2023-04-01T03:00:35;8.65;;;3.45;;
67053;SDS011;53960;51.826;5.850;2023-04-01T03:03:01;8.90;;;3.07;;
67053;SDS011;53960;51.826;5.850;2023-04-01T03:05:27;8.77;;;3.33;;
67053;SDS011;53960;51.826;5.850;2023-04-01T03:07:53;8.20;;;3.53;;
67053;SDS011;53960;51.826;5.850;2023-04-01T03:10:18;7.50;;;2.83;;
67053;SDS011;53960;51.826;5.850;2023-04-01T03:12:43;9.00;;;2.90;;
67053;SDS011;53960;51.826;5.850;2023-04-01T03:15:09;7.50;;;2.90;;
67053;SDS011;53960;51.826;5.850;2023-04-01T03:17:36;7.53;;;2.50;;
67053;SDS011;53960;51.826;5.850;2023-04-01T03:20:01;7.67;;;2.73;;
67053;SDS011;53960;51.826;5.850;2023-04-01T03:22:29;6.85;;;2.25;;
67053;SDS011;53960;51.826;5.850;2023-04-01T03:24:55;8.93;;;2.33;;
67053;SDS011;53960;51.826;5.850;2023-04-01T03:27:21;6.97;;;2.40;;
67053;SDS011;53960;51.826;5.850;2023-04-01T03:29:47;6.93;;;2.30;;
67053;SDS011;53960;51.826;5.850;2023-04-01T03:32:12;7.07;;;2.40;;
67053;SDS011;53960;51.826;5.850;2023-04-01T03:34:37;8.03;;;2.63;;
67053;SDS011;53960;51.826;5.850;2023-04-01T03:37:02;7.70;;;2.53;;
67053;SDS011;53960;51.826;5.850;2023-04-01T03:39:28;7.23;;;2.73;;
67053;SDS011;53960;51.826;5.850;2023-04-01T03:41:53;8.25;;;2.40;;
67053;SDS011;53960;51.826;5.850;2023-04-01T03:44:19;7.97;;;2.77;;
67053;SDS011;53960;51.826;5.850;2023-04-01T03:46:44;7.15;;;2.50;;
67053;SDS011;53960;51.826;5.850;2023-04-01T03:49:10;7.77;;;2.33;;
67053;SDS011;53960;51.826;5.850;2023-04-01T03:51:45;8.10;;;2.63;;
67053;SDS011;53960;51.826;5.850;2023-04-01T03:54:11;6.95;;;2.67;;
67053;SDS011;53960;51.826;5.850;2023-04-01T03:56:36;7.20;;;2.40;;
67053;SDS011;53960;51.826;5.850;2023-04-01T03:59:03;7.93;;;2.70;;
67053;SDS011;53960;51.826;5.850;2023-04-01T04:01:30;8.20;;;2.55;;
67053;SDS011;53960;51.826;5.850;2023-04-01T04:03:55;8.00;;;2.57;;
67053;SDS011;53960;51.826;5.850;2023-04-01T04:06:22;8.32;;;2.58;;
67053;SDS011;53960;51.826;5.850;2023-04-01T04:08:48;7.80;;;2.92;;
67053;SDS011;53960;51.826;5.850;2023-04-01T04:11:14;8.33;;;2.30;;
67053;SDS011;53960;51.826;5.850;2023-04-01T04:13:39;8.02;;;2.45;;
67053;SDS011;53960;51.826;5.850;2023-04-01T04:16:05;6.80;;;2.27;;
67053;SDS011;53960;51.826;5.850;2023-04-01T04:18:32;8.15;;;2.67;;
67053;SDS011;53960;51.826;5.850;2023-04-01T04:20:57;8.02;;;2.65;;
67053;SDS011;53960;51.826;5.850;2023-04-01T04:23:23;8.23;;;2.70;;
67053;SDS011;53960;51.826;5.850;2023-04-01T04:28:24;7.28;;;2.80;;
67053;SDS011;53960;51.826;5.850;2023-04-01T04:30:51;7.00;;;2.60;;
67053;SDS011;53960;51.826;5.850;2023-04-01T04:33:16;9.00;;;2.73;;
67053;SDS011;53960;51.826;5.850;2023-04-01T04:35:42;6.88;;;2.50;;
67053;SDS011;53960;51.826;5.850;2023-04-01T04:38:07;7.97;;;2.90;;
67053;SDS011;53960;51.826;5.850;2023-04-01T04:40:32;8.17;;;3.23;;
67053;SDS011;53960;51.826;5.850;2023-04-01T04:42:58;9.03;;;3.70;;
67053;SDS011;53960;51.826;5.850;2023-04-01T04:45:23;8.00;;;3.40;;
67053;SDS011;53960;51.826;5.850;2023-04-01T04:47:48;8.37;;;3.70;;
67053;SDS011;53960;51.826;5.850;2023-04-01T04:50:14;10.02;;;3.78;;
67053;SDS011;53960;51.826;5.850;2023-04-01T04:52:39;9.80;;;4.27;;
67053;SDS011;53960;51.826;5.850;2023-04-01T04:55:05;9.17;;;3.80;;
67053;SDS011;53960;51.826;5.850;2023-04-01T04:57:30;9.07;;;4.20;;
67053;SDS011;53960;51.826;5.850;2023-04-01T04:59:56;9.43;;;4.17;;
67053;SDS011;53960;51.826;5.850;2023-04-01T05:02:21;10.13;;;4.57;;
67053;SDS011;53960;51.826;5.850;2023-04-01T05:04:46;11.13;;;4.80;;
67053;SDS011;53960;51.826;5.850;2023-04-01T05:07:12;10.00;;;4.60;;
67053;SDS011;53960;51.826;5.850;2023-04-01T05:09:37;10.90;;;4.70;;
67053;SDS011;53960;51.826;5.850;2023-04-01T05:12:02;10.30;;;4.50;;
67053;SDS011;53960;51.826;5.850;2023-04-01T05:14:28;9.33;;;4.30;;
67053;SDS011;53960;51.826;5.850;2023-04-01T05:16:53;12.30;;;4.50;;
67053;SDS011;53960;51.826;5.850;2023-04-01T05:19:19;10.93;;;4.30;;
67053;SDS011;53960;51.826;5.850;2023-04-01T05:21:45;10.45;;;4.20;;
67053;SDS011;53960;51.826;5.850;2023-04-01T05:24:10;10.43;;;4.27;;
67053;SDS011;53960;51.826;5.850;2023-04-01T05:26:35;10.43;;;4.67;;
67053;SDS011;53960;51.826;5.850;2023-04-01T05:29:02;10.25;;;4.97;;
67053;SDS011;53960;51.826;5.850;2023-04-01T05:31:28;9.75;;;4.47;;
67053;SDS011;53960;51.826;5.850;2023-04-01T05:33:53;10.77;;;4.73;;
67053;SDS011;53960;51.826;5.850;2023-04-01T05:36:19;12.33;;;5.63;;
67053;SDS011;53960;51.826;5.850;2023-04-01T05:38:44;11.95;;;6.13;;
67053;SDS011;53960;51.826;5.850;2023-04-01T05:41:15;10.83;;;4.60;;
67053;SDS011;53960;51.826;5.850;2023-04-01T05:43:41;11.82;;;5.47;;
67053;SDS011;53960;51.826;5.850;2023-04-01T05:46:07;11.15;;;5.35;;
67053;SDS011;53960;51.826;5.850;2023-04-01T05:48:32;12.40;;;5.80;;
67053;SDS011;53960;51.826;5.850;2023-04-01T05:50:59;13.27;;;6.20;;
67053;SDS011;53960;51.826;5.850;2023-04-01T05:53:25;12.90;;;6.10;;
67053;SDS011;53960;51.826;5.850;2023-04-01T05:55:50;16.40;;;6.93;;
67053;SDS011;53960;51.826;5.850;2023-04-01T05:58:15;14.57;;;7.00;;
67053;SDS011;53960;51.826;5.850;2023-04-01T06:00:41;15.80;;;7.63;;
67053;SDS011;53960;51.826;5.850;2023-04-01T06:03:06;17.17;;;7.87;;
67053;SDS011;53960;51.826;5.850;2023-04-01T06:05:41;16.83;;;7.57;;
67053;SDS011;53960;51.826;5.850;2023-04-01T06:08:10;15.75;;;7.63;;
67053;SDS011;53960;51.826;5.850;2023-04-01T06:10:40;16.85;;;7.40;;
67053;SDS011;53960;51.826;5.850;2023-04-01T06:13:12;15.47;;;6.43;;
67053;SDS011;53960;51.826;5.850;2023-04-01T06:21:18;14.38;;;5.97;;
67053;SDS011;53960;51.826;5.850;2023-04-01T06:24:04;14.80;;;6.20;;
67053;SDS011;53960;51.826;5.850;2023-04-01T06:32:56;14.48;;;6.22;;
67053;SDS011;53960;51.826;5.850;2023-04-01T06:41:17;15.37;;;6.77;;
67053;SDS011;53960;51.826;5.850;2023-04-01T06:46:42;18.58;;;7.88;;
67053;SDS011;53960;51.826;5.850;2023-04-01T06:49:25;20.90;;;8.43;;
67053;SDS011;53960;51.826;5.850;2023-04-01T06:52:23;20.00;;;8.63;;
67053;SDS011;53960;51.826;5.850;2023-04-01T06:55:15;21.27;;;9.13;;
67053;SDS011;53960;51.826;5.850;2023-04-01T06:58:03;19.90;;;8.80;;
67053;SDS011;53960;51.826;5.850;2023-04-01T07:00:37;19.52;;;8.48;;
67053;SDS011;53960;51.826;5.850;2023-04-01T07:03:20;19.73;;;8.63;;
67053;SDS011;53960;51.826;5.850;2023-04-01T07:05:51;20.25;;;8.80;;
67053;SDS011;53960;51.826;5.850;2023-04-01T07:08:19;21.57;;;9.10;;
67053;SDS011;53960;51.826;5.850;2023-04-01T07:13:27;23.15;;;9.45;;
67053;SDS011;53960;51.826;5.850;2023-04-01T07:16:25;20.52;;;9.43;;
67053;SDS011;53960;51.826;5.850;2023-04-01T07:21:41;19.50;;;8.63;;
67053;SDS011;53960;51.826;5.850;2023-04-01T07:24:33;20.10;;;8.70;;
67053;SDS011;53960;51.826;5.850;2023-04-01T07:27:00;17.92;;;8.55;;
67053;SDS011;53960;51.826;5.850;2023-04-01T07:29:26;19.37;;;8.83;;
67053;SDS011;53960;51.826;5.850;2023-04-01T07:34:41;20.75;;;8.55;;
67053;SDS011;53960;51.826;5.850;2023-04-01T07:37:23;18.23;;;7.95;;
67053;SDS011;53960;51.826;5.850;2023-04-01T07:40:18;19.50;;;8.20;;
67053;SDS011;53960;51.826;5.850;2023-04-01T07:42:59;19.95;;;8.23;;
67053;SDS011;53960;51.826;5.850;2023-04-01T07:46:14;18.02;;;7.85;;
67053;SDS011;53960;51.826;5.850;2023-04-01T07:49:12;19.13;;;8.45;;
67053;SDS011;53960;51.826;5.850;2023-04-01T07:54:18;16.23;;;6.90;;
67053;SDS011;53960;51.826;5.850;2023-04-01T07:57:53;15.15;;;6.90;;
67053;SDS011;53960;51.826;5.850;2023-04-01T08:02:48;15.60;;;6.93;;
67053;SDS011;53960;51.826;5.850;2023-04-01T08:08:46;15.75;;;7.30;;
67053;SDS011;53960;51.826;5.850;2023-04-01T08:11:25;17.47;;;7.33;;
67053;SDS011;53960;51.826;5.850;2023-04-01T08:14:03;16.80;;;7.13;;
67053;SDS011;53960;51.826;5.850;2023-04-01T08:21:49;16.77;;;6.38;;
67053;SDS011;53960;51.826;5.850;2023-04-01T08:27:11;14.60;;;6.35;;
67053;SDS011;53960;51.826;5.850;2023-04-01T08:29:45;15.20;;;6.47;;
67053;SDS011;53960;51.826;5.850;2023-04-01T08:32:16;15.68;;;6.05;;
67053;SDS011;53960;51.826;5.850;2023-04-01T08:34:47;14.18;;;5.38;;
67053;SDS011;53960;51.826;5.850;2023-04-01T08:37:21;14.90;;;6.67;;
67053;SDS011;53960;51.826;5.850;2023-04-01T08:40:04;16.80;;;7.28;;
67053;SDS011;53960;51.826;5.850;2023-04-01T08:43:05;15.52;;;7.45;;
67053;SDS011;53960;51.826;5.850;2023-04-01T08:51:16;14.07;;;6.13;;
67053;SDS011;53960;51.826;5.850;2023-04-01T08:59:50;14.55;;;6.70;;
67053;SDS011;53960;51.826;5.850;2023-04-01T09:02:41;14.43;;;6.47;;
67053;SDS011;53960;51.826;5.850;2023-04-01T09:09:05;15.02;;;6.82;;
67053;SDS011;53960;51.826;5.850;2023-04-01T09:11:55;13.20;;;5.80;;
67053;SDS011;53960;51.826;5.850;2023-04-01T09:26:06;14.35;;;6.30;;
67053;SDS011;53960;51.826;5.850;2023-04-01T09:46:03;13.75;;;5.95;;
67053;SDS011;53960;51.826;5.850;2023-04-01T09:51:17;14.52;;;6.75;;
67053;SDS011;53960;51.826;5.850;2023-04-01T10:07:38;17.17;;;7.22;;
67053;SDS011;53960;51.826;5.850;2023-04-01T10:11:11;15.25;;;7.03;;
67053;SDS011;53960;51.826;5.850;2023-04-01T10:16:34;15.70;;;7.27;;
67053;SDS011;53960;51.826;5.850;2023-04-01T10:28:03;16.92;;;7.78;;
67053;SDS011;53960;51.826;5.850;2023-04-01T10:39:32;21.80;;;8.98;;
67053;SDS011;53960;51.826;5.850;2023-04-01T10:45:03;20.97;;;8.63;;
67053;SDS011;53960;51.826;5.850;2023-04-01T10:53:34;20.52;;;9.27;;
67053;SDS011;53960;51.826;5.850;2023-04-01T11:24:51;17.60;;;7.75;;
67053;SDS011;53960;51.826;5.850;2023-04-01T11:30:16;13.88;;;6.80;;
67053;SDS011;53960;51.826;5.850;2023-04-01T11:35:53;12.85;;;5.88;;
67053;SDS011;53960;51.826;5.850;2023-04-01T11:38:53;12.85;;;6.10;;
67053;SDS011;53960;51.826;5.850;2023-04-01T11:44:36;12.93;;;6.07;;
67053;SDS011;53960;51.826;5.850;2023-04-01T11:47:19;12.88;;;6.07;;
67053;SDS011;53960;51.826;5.850;2023-04-01T11:56:02;15.23;;;6.73;;
67053;SDS011;53960;51.826;5.850;2023-04-01T11:58:42;15.73;;;6.68;;
67053;SDS011;53960;51.826;5.850;2023-04-01T12:09:47;15.70;;;7.23;;
67053;SDS011;53960;51.826;5.850;2023-04-01T12:12:32;14.32;;;6.97;;
67053;SDS011;53960;51.826;5.850;2023-04-01T12:15:16;15.73;;;7.05;;
67053;SDS011;53960;51.826;5.850;2023-04-01T12:20:43;13.95;;;6.72;;
67053;SDS011;53960;51.826;5.850;2023-04-01T12:23:22;14.20;;;6.70;;
67053;SDS011;53960;51.826;5.850;2023-04-01T12:26:35;16.15;;;6.68;;
67053;SDS011;53960;51.826;5.850;2023-04-01T12:29:42;12.65;;;5.90;;
67053;SDS011;53960;51.826;5.850;2023-04-01T12:32:25;13.30;;;5.32;;
67053;SDS011;53960;51.826;5.850;2023-04-01T12:35:16;12.73;;;5.22;;
67053;SDS011;53960;51.826;5.850;2023-04-01T12:37:49;11.67;;;5.17;;
67053;SDS011;53960;51.826;5.850;2023-04-01T12:43:12;12.23;;;5.80;;
67053;SDS011;53960;51.826;5.850;2023-04-01T12:46:06;12.82;;;5.60;;
67053;SDS011;53960;51.826;5.850;2023-04-01T12:55:03;8.05;;;2.83;;
67053;SDS011;53960;51.826;5.850;2023-04-01T13:08:17;6.75;;;2.00;;
67053;SDS011;53960;51.826;5.850;2023-04-01T13:17:20;7.10;;;1.70;;
67053;SDS011;53960;51.826;5.850;2023-04-01T13:25:47;6.90;;;1.90;;
67053;SDS011;53960;51.826;5.850;2023-04-01T13:28:30;6.30;;;2.00;;
67053;SDS011;53960;51.826;5.850;2023-04-01T13:34:00;6.37;;;2.00;;
67053;SDS011;53960;51.826;5.850;2023-04-01T13:37:02;9.27;;;2.40;;
67053;SDS011;53960;51.826;5.850;2023-04-01T13:39:39;7.57;;;2.80;;
67053;SDS011;53960;51.826;5.850;2023-04-01T13:42:15;7.57;;;2.90;;
67053;SDS011;53960;51.826;5.850;2023-04-01T13:47:34;10.73;;;4.40;;
67053;SDS011;53960;51.826;5.850;2023-04-01T13:50:37;10.85;;;4.40;;
67053;SDS011;53960;51.826;5.850;2023-04-01T13:56:16;10.80;;;4.30;;
67053;SDS011;53960;51.826;5.850;2023-04-01T13:58:58;10.77;;;4.93;;
67053;SDS011;53960;51.826;5.850;2023-04-01T14:12:44;8.63;;;3.80;;
67053;SDS011;53960;51.826;5.850;2023-04-01T14:15:24;10.43;;;4.20;;
67053;SDS011;53960;51.826;5.850;2023-04-01T14:24:13;8.73;;;3.42;;
67053;SDS011;53960;51.826;5.850;2023-04-01T14:32:48;9.13;;;2.80;;
67053;SDS011;53960;51.826;5.850;2023-04-01T14:35:23;8.13;;;2.53;;
67053;SDS011;53960;51.826;5.850;2023-04-01T14:49:34;8.40;;;2.67;;
67053;SDS011;53960;51.826;5.850;2023-04-01T14:54:48;8.60;;;2.90;;
67053;SDS011;53960;51.826;5.850;2023-04-01T14:57:20;8.03;;;2.70;;
67053;SDS011;53960;51.826;5.850;2023-04-01T15:05:13;8.30;;;3.00;;
67053;SDS011;53960;51.826;5.850;2023-04-01T15:08:04;10.18;;;3.70;;
67053;SDS011;53960;51.826;5.850;2023-04-01T15:13:38;8.70;;;3.50;;
67053;SDS011;53960;51.826;5.850;2023-04-01T15:21:44;10.60;;;5.70;;
67053;SDS011;53960;51.826;5.850;2023-04-01T15:24:24;9.60;;;3.23;;
67053;SDS011;53960;51.826;5.850;2023-04-01T15:32:21;7.65;;;2.72;;
67053;SDS011;53960;51.826;5.850;2023-04-01T15:40:30;8.20;;;3.15;;
67053;SDS011;53960;51.826;5.850;2023-04-01T15:43:11;8.30;;;3.30;;
67053;SDS011;53960;51.826;5.850;2023-04-01T15:45:51;9.68;;;3.90;;
67053;SDS011;53960;51.826;5.850;2023-04-01T15:48:44;9.50;;;4.20;;
67053;SDS011;53960;51.826;5.850;2023-04-01T15:54:27;7.60;;;2.40;;
67053;SDS011;53960;51.826;5.850;2023-04-01T16:00:25;6.35;;;1.95;;
67053;SDS011;53960;51.826;5.850;2023-04-01T16:03:20;6.60;;;1.83;;
67053;SDS011;53960;51.826;5.850;2023-04-01T16:24:48;8.43;;;2.50;;
67053;SDS011;53960;51.826;5.850;2023-04-01T16:27:33;7.18;;;2.40;;
67053;SDS011;53960;51.826;5.850;2023-04-01T16:30:23;7.68;;;2.65;;
67053;SDS011;53960;51.826;5.850;2023-04-01T16:38:18;9.20;;;3.92;;
67053;SDS011;53960;51.826;5.850;2023-04-01T16:51:52;9.60;;;4.40;;
67053;SDS011;53960;51.826;5.850;2023-04-01T16:59:36;8.20;;;3.58;;
67053;SDS011;53960;51.826;5.850;2023-04-01T17:04:44;10.90;;;4.88;;
67053;SDS011;53960;51.826;5.850;2023-04-01T17:10:06;11.83;;;5.93;;
67053;SDS011;53960;51.826;5.850;2023-04-01T17:13:44;9.68;;;4.50;;
67053;SDS011;53960;51.826;5.850;2023-04-01T17:15:58;8.95;;;4.20;;
67053;SDS011;53960;51.826;5.850;2023-04-01T17:18:38;8.15;;;3.13;;
67053;SDS011;53960;51.826;5.850;2023-04-01T17:24:38;11.17;;;4.13;;
67053;SDS011;53960;51.826;5.850;2023-04-01T17:27:05;13.00;;;5.10;;
67053;SDS011;53960;51.826;5.850;2023-04-01T17:29:56;12.80;;;5.80;;
67053;SDS011;53960;51.826;5.850;2023-04-01T17:35:35;12.43;;;5.18;;
67053;SDS011;53960;51.826;5.850;2023-04-01T17:38:19;13.70;;;5.83;;
67053;SDS011;53960;51.826;5.850;2023-04-01T17:41:14;16.70;;;7.32;;
67053;SDS011;53960;51.826;5.850;2023-04-01T17:44:07;12.43;;;5.38;;
67053;SDS011;53960;51.826;5.850;2023-04-01T17:51:50;11.30;;;4.20;;
67053;SDS011;53960;51.826;5.850;2023-04-01T17:56:58;10.35;;;4.72;;
67053;SDS011;53960;51.826;5.850;2023-04-01T17:59:47;10.57;;;4.72;;
67053;SDS011;53960;51.826;5.850;2023-04-01T18:02:21;12.85;;;5.93;;
67053;SDS011;53960;51.826;5.850;2023-04-01T18:07:45;12.05;;;4.60;;
67053;SDS011;53960;51.826;5.850;2023-04-01T18:13:14;11.02;;;4.82;;
67053;SDS011;53960;51.826;5.850;2023-04-01T18:18:50;11.40;;;5.47;;
67053;SDS011;53960;51.826;5.850;2023-04-01T18:23:53;11.80;;;5.13;;
67053;SDS011;53960;51.826;5.850;2023-04-01T18:26:23;9.77;;;4.82;;
67053;SDS011;53960;51.826;5.850;2023-04-01T18:28:57;10.98;;;5.00;;
67053;SDS011;53960;51.826;5.850;2023-04-01T18:31:38;10.90;;;5.17;;
67053;SDS011;53960;51.826;5.850;2023-04-01T18:37:22;12.90;;;5.88;;
67053;SDS011;53960;51.826;5.850;2023-04-01T18:39:52;17.25;;;7.30;;
67053;SDS011;53960;51.826;5.850;2023-04-01T18:46:29;14.10;;;6.80;;
67053;SDS011;53960;51.826;5.850;2023-04-01T18:51:25;16.23;;;8.10;;
67053;SDS011;53960;51.826;5.850;2023-04-01T18:54:05;14.73;;;6.53;;
67053;SDS011;53960;51.826;5.850;2023-04-01T18:56:38;13.88;;;6.55;;
67053;SDS011;53960;51.826;5.850;2023-04-01T18:59:25;14.40;;;7.50;;
67053;SDS011;53960;51.826;5.850;2023-04-01T19:05:32;13.05;;;5.88;;
67053;SDS011;53960;51.826;5.850;2023-04-01T19:10:13;11.93;;;5.97;;
67053;SDS011;53960;51.826;5.850;2023-04-01T19:12:51;11.13;;;5.30;;
67053;SDS011;53960;51.826;5.850;2023-04-01T19:31:59;12.63;;;6.50;;
67053;SDS011;53960;51.826;5.850;2023-04-01T19:34:52;13.20;;;6.88;;
67053;SDS011;53960;51.826;5.850;2023-04-01T19:59:38;11.07;;;5.57;;
67053;SDS011;53960;51.826;5.850;2023-04-01T20:04:44;11.90;;;5.53;;
67053;SDS011;53960;51.826;5.850;2023-04-01T20:07:30;10.10;;;4.78;;
67053;SDS011;53960;51.826;5.850;2023-04-01T20:13:11;10.30;;;4.20;;
67053;SDS011;53960;51.826;5.850;2023-04-01T20:18:15;9.30;;;4.30;;
67053;SDS011;53960;51.826;5.850;2023-04-01T20:20:54;11.15;;;5.15;;
67053;SDS011;53960;51.826;5.850;2023-04-01T20:23:38;11.48;;;5.70;;
67053;SDS011;53960;51.826;5.850;2023-04-01T20:26:13;11.47;;;6.00;;
67053;SDS011;53960;51.826;5.850;2023-04-01T20:28:49;11.45;;;5.80;;
67053;SDS011;53960;51.826;5.850;2023-04-01T20:31:36;12.40;;;6.47;;
67053;SDS011;53960;51.826;5.850;2023-04-01T20:48:00;13.35;;;6.93;;
67053;SDS011;53960;51.826;5.850;2023-04-01T20:53:16;12.93;;;6.60;;
67053;SDS011;53960;51.826;5.850;2023-04-01T20:58:42;12.87;;;6.97;;
67053;SDS011;53960;51.826;5.850;2023-04-01T21:04:10;12.13;;;6.25;;
67053;SDS011;53960;51.826;5.850;2023-04-01T21:06:48;14.52;;;7.03;;
67053;SDS011;53960;51.826;5.850;2023-04-01T21:11:46;12.17;;;5.77;;
67053;SDS011;53960;51.826;5.850;2023-04-01T21:18:19;13.53;;;6.30;;
67053;SDS011;53960;51.826;5.850;2023-04-01T21:20:39;12.88;;;7.05;;
67053;SDS011;53960;51.826;5.850;2023-04-01T21:31:33;14.87;;;7.73;;
67053;SDS011;53960;51.826;5.850;2023-04-01T21:42:43;15.20;;;8.07;;
67053;SDS011;53960;51.826;5.850;2023-04-01T21:53:33;14.63;;;7.63;;
67053;SDS011;53960;51.826;5.850;2023-04-01T22:02:03;12.52;;;6.10;;
67053;SDS011;53960;51.826;5.850;2023-04-01T22:07:43;13.00;;;6.72;;
67053;SDS011;53960;51.826;5.850;2023-04-01T22:10:26;13.25;;;7.15;;
67053;SDS011;53960;51.826;5.850;2023-04-01T22:29:03;12.60;;;6.70;;
67053;SDS011;53960;51.826;5.850;2023-04-01T22:31:44;12.52;;;6.90;;
67053;SDS011;53960;51.826;5.850;2023-04-01T22:34:34;12.27;;;6.50;;
67053;SDS011;53960;51.826;5.850;2023-04-01T22:39:41;11.50;;;5.33;;
67053;SDS011;53960;51.826;5.850;2023-04-01T22:42:19;10.65;;;5.35;;
67053;SDS011;53960;51.826;5.850;2023-04-01T22:56:12;9.00;;;4.17;;
67053;SDS011;53960;51.826;5.850;2023-04-01T22:58:56;11.48;;;5.05;;
67053;SDS011;53960;51.826;5.850;2023-04-01T23:01:28;10.75;;;4.85;;
67053;SDS011;53960;51.826;5.850;2023-04-01T23:03:57;9.27;;;4.57;;
67053;SDS011;53960;51.826;5.850;2023-04-01T23:06:26;10.00;;;5.03;;
67053;SDS011;53960;51.826;5.850;2023-04-01T23:09:12;10.30;;;4.87;;
67053;SDS011;53960;51.826;5.850;2023-04-01T23:14:19;11.67;;;4.90;;
67053;SDS011;53960;51.826;5.850;2023-04-01T23:17:01;10.73;;;5.63;;
67053;SDS011;53960;51.826;5.850;2023-04-01T23:27:51;13.03;;;6.10;;
67053;SDS011;53960;51.826;5.850;2023-04-01T23:35:48;12.05;;;6.45;;
67053;SDS011;53960;51.826;5.850;2023-04-01T23:38:19;11.27;;;5.07;;
67053;SDS011;53960;51.826;5.850;2023-04-01T23:40:50;11.73;;;5.33;;
67053;SDS011;53960;51.826;5.850;2023-04-01T23:43:28;12.50;;;5.68;;
67053;SDS011;53960;51.826;5.850;2023-04-01T23:45:56;10.95;;;5.72;;
67053;SDS011;53960;51.826;5.850;2023-04-01T23:48:25;12.02;;;6.22;;
67053;SDS011;53960;51.826;5.850;2023-04-01T23:50:53;11.70;;;5.57;;
67053;SDS011;53960;51.826;5.850;2023-04-01T23:53:26;11.80;;;5.90;;
67053;SDS011;53960;51.826;5.850;2023-04-01T23:55:58;12.95;;;5.95;;
67053;SDS011;53960;51.826;5.850;2023-04-01T23:58:47;11.80;;;5.70;;
